sensor_id;sensor_type;location;lat;lon;timestamp;pressure;altitude;pressure_sealevel;temperature;humidity
2397;BME280;1209;48.410;9.054;2024-01-30T00:01:11;97539.91;;;1.90;100.00
2397;BME280;1209;48.410;9.054;2024-01-30T00:03:37;97526.50;;;1.69;100.00
2397;BME280;1209;48.410;9.054;2024-01-30T00:06:03;97537.84;;;1.81;100.00
2397;BME280;1209;48.410;9.054;2024-01-30T00:08:28;97536.00;;;1.83;100.00
2397;BME280;1209;48.410;9.054;2024-01-30T00:10:53;97527.72;;;1.78;100.00
2397;BME280;1209;48.410;9.054;2024-01-30T00:13:19;97531.84;;;1.80;100.00
2397;BME280;1209;48.410;9.054;2024-01-30T00:15:45;97526.47;;;1.55;100.00
2397;BME280;1209;48.410;9.054;2024-01-30T00:18:10;97540.31;;;1.82;100.00
2397;BME280;1209;48.410;9.054;2024-01-30T00:20:36;97543.13;;;1.94;100.00
2397;BME280;1209;48.410;9.054;2024-01-30T00:23:01;97547.00;;;2.15;100.00
2397;BME280;1209;48.410;9.054;2024-01-30T00:25:26;97538.72;;;1.66;100.00
2397;BME280;1209;48.410;9.054;2024-01-30T00:27:52;97533.91;;;1.45;100.00
2397;BME280;1209;48.410;9.054;2024-01-30T00:30:17;97531.66;;;1.69;100.00
2397;BME280;1209;48.410;9.054;2024-01-30T00:32:42;97539.81;;;1.92;100.00
2397;BME280;1209;48.410;9.054;2024-01-30T00:35:07;97544.22;;;1.89;100.00
2397;BME280;1209;48.410;9.054;2024-01-30T00:37:35;97547.19;;;1.98;100.00
2397;BME280;1209;48.410;9.054;2024-01-30T00:40:00;97554.25;;;1.94;100.00
2397;BME280;1209;48.410;9.054;2024-01-30T00:42:25;97548.50;;;1.75;100.00
2397;BME280;1209;48.410;9.054;2024-01-30T00:44:51;97550.34;;;1.87;100.00
2397;BME280;1209;48.410;9.054;2024-01-30T00:47:16;97552.56;;;1.79;100.00
2397;BME280;1209;48.410;9.054;2024-01-30T00:49:42;97548.38;;;1.92;100.00
2397;BME280;1209;48.410;9.054;2024-01-30T00:52:07;97551.50;;;1.67;100.00
2397;BME280;1209;48.410;9.054;2024-01-30T00:54:32;97557.22;;;1.72;100.00
2397;BME280;1209;48.410;9.054;2024-01-30T00:56:57;97551.31;;;1.56;100.00
2397;BME280;1209;48.410;9.054;2024-01-30T00:59:23;97554.34;;;1.63;100.00
2397;BME280;1209;48.410;9.054;2024-01-30T01:01:48;97544.66;;;1.52;100.00
2397;BME280;1209;48.410;9.054;2024-01-30T01:04:13;97547.81;;;1.41;100.00
2397;BME280;1209;48.410;9.054;2024-01-30T01:06:39;97558.66;;;1.62;100.00
2397;BME280;1209;48.410;9.054;2024-01-30T01:09:04;97554.34;;;1.63;100.00
2397;BME280;1209;48.410;9.054;2024-01-30T01:11:29;97556.94;;;1.63;100.00
2397;BME280;1209;48.410;9.054;2024-01-30T01:13:54;97547.97;;;1.54;100.00
2397;BME280;1209;48.410;9.054;2024-01-30T01:16:20;97552.97;;;1.57;100.00
2397;BME280;1209;48.410;9.054;2024-01-30T01:18:45;97542.03;;;1.68;100.00
2397;BME280;1209;48.410;9.054;2024-01-30T01:21:10;97547.97;;;1.84;100.00
2397;BME280;1209;48.410;9.054;2024-01-30T01:23:36;97547.88;;;1.85;100.00
2397;BME280;1209;48.410;9.054;2024-01-30T01:26:01;97552.59;;;1.93;100.00
2397;BME280;1209;48.410;9.054;2024-01-30T01:28:26;97546.44;;;2.10;100.00
2397;BME280;1209;48.410;9.054;2024-01-30T01:30:52;97546.53;;;2.08;100.00
2397;BME280;1209;48.410;9.054;2024-01-30T01:33:17;97543.88;;;1.96;100.00
2397;BME280;1209;48.410;9.054;2024-01-30T01:35:43;97546.38;;;2.11;100.00
2397;BME280;1209;48.410;9.054;2024-01-30T01:38:08;97544.78;;;2.09;100.00
2397;BME280;1209;48.410;9.054;2024-01-30T01:40:33;97538.66;;;1.81;100.00
2397;BME280;1209;48.410;9.054;2024-01-30T01:42:58;97552.84;;;1.88;100.00
2397;BME280;1209;48.410;9.054;2024-01-30T01:45:24;97549.31;;;1.75;100.00
2397;BME280;1209;48.410;9.054;2024-01-30T01:47:52;97541.75;;;1.58;100.00
2397;BME280;1209;48.410;9.054;2024-01-30T01:50:18;97550.03;;;1.63;100.00
2397;BME280;1209;48.410;9.054;2024-01-30T01:52:44;97547.47;;;1.63;100.00
2397;BME280;1209;48.410;9.054;2024-01-30T01:55:12;97544.72;;;1.80;100.00
2397;BME280;1209;48.410;9.054;2024-01-30T01:57:38;97543.06;;;1.65;100.00
2397;BME280;1209;48.410;9.054;2024-01-30T02:00:03;97548.72;;;1.56;100.00
2397;BME280;1209;48.410;9.054;2024-01-30T02:02:35;97543.00;;;1.51;100.00
2397;BME280;1209;48.410;9.054;2024-01-30T02:05:01;97541.28;;;1.51;100.00
2397;BME280;1209;48.410;9.054;2024-01-30T02:07:27;97543.28;;;1.46;100.00
2397;BME280;1209;48.410;9.054;2024-01-30T02:09:53;97541.53;;;1.47;100.00
2397;BME280;1209;48.410;9.054;2024-01-30T02:12:18;97540.78;;;1.75;100.00
2397;BME280;1209;48.410;9.054;2024-01-30T02:14:47;97542.84;;;1.54;100.00
2397;BME280;1209;48.410;9.054;2024-01-30T02:17:13;97540.06;;;1.43;100.00
2397;BME280;1209;48.410;9.054;2024-01-30T02:19:39;97539.69;;;1.49;100.00
2397;BME280;1209;48.410;9.054;2024-01-30T02:22:04;97539.41;;;1.23;100.00
2397;BME280;1209;48.410;9.054;2024-01-30T02:24:30;97535.91;;;1.24;100.00
2397;BME280;1209;48.410;9.054;2024-01-30T02:26:55;97526.94;;;1.32;100.00
2397;BME280;1209;48.410;9.054;2024-01-30T02:29:21;97530.78;;;1.54;100.00
2397;BME280;1209;48.410;9.054;2024-01-30T02:31:46;97528.88;;;1.58;100.00
2397;BME280;1209;48.410;9.054;2024-01-30T02:34:11;97533.97;;;1.74;100.00
2397;BME280;1209;48.410;9.054;2024-01-30T02:36:37;97537.66;;;1.84;100.00
2397;BME280;1209;48.410;9.054;2024-01-30T02:39:03;97534.06;;;1.86;100.00
2397;BME280;1209;48.410;9.054;2024-01-30T02:41:28;97531.47;;;1.72;100.00
2397;BME280;1209;48.410;9.054;2024-01-30T02:43:53;97544.63;;;1.68;100.00
2397;BME280;1209;48.410;9.054;2024-01-30T02:46:19;97540.59;;;1.78;100.00
2397;BME280;1209;48.410;9.054;2024-01-30T02:48:44;97539.75;;;1.77;100.00
2397;BME280;1209;48.410;9.054;2024-01-30T02:51:09;97539.22;;;1.86;100.00
2397;BME280;1209;48.410;9.054;2024-01-30T02:53:34;97536.28;;;1.78;100.00
2397;BME280;1209;48.410;9.054;2024-01-30T02:56:02;97533.03;;;1.75;100.00
2397;BME280;1209;48.410;9.054;2024-01-30T02:58:27;97531.06;;;1.50;100.00
2397;BME280;1209;48.410;9.054;2024-01-30T03:00:52;97530.25;;;1.34;100.00
2397;BME280;1209;48.410;9.054;2024-01-30T03:03:18;97537.03;;;1.50;100.00
2397;BME280;1209;48.410;9.054;2024-01-30T03:05:43;97528.75;;;1.45;100.00
2397;BME280;1209;48.410;9.054;2024-01-30T03:08:08;97535.66;;;1.45;100.00
2397;BME280;1209;48.410;9.054;2024-01-30T03:10:33;97523.94;;;1.39;100.00
2397;BME280;1209;48.410;9.054;2024-01-30T03:12:59;97526.13;;;1.15;100.00
2397;BME280;1209;48.410;9.054;2024-01-30T03:15:24;97521.22;;;1.26;100.00
2397;BME280;1209;48.410;9.054;2024-01-30T03:17:49;97515.81;;;1.31;100.00
2397;BME280;1209;48.410;9.054;2024-01-30T03:20:14;97532.44;;;1.25;100.00
2397;BME280;1209;48.410;9.054;2024-01-30T03:22:40;97533.25;;;1.26;100.00
2397;BME280;1209;48.410;9.054;2024-01-30T03:25:05;97533.38;;;1.39;100.00
2397;BME280;1209;48.410;9.054;2024-01-30T03:27:31;97522.16;;;1.10;100.00
2397;BME280;1209;48.410;9.054;2024-01-30T03:29:56;97523.97;;;1.23;100.00
2397;BME280;1209;48.410;9.054;2024-01-30T03:32:21;97531.81;;;1.36;100.00
2397;BME280;1209;48.410;9.054;2024-01-30T03:34:47;97523.78;;;1.26;100.00
2397;BME280;1209;48.410;9.054;2024-01-30T03:37:12;97530.41;;;1.46;100.00
2397;BME280;1209;48.410;9.054;2024-01-30T03:39:37;97524.44;;;1.30;100.00
2397;BME280;1209;48.410;9.054;2024-01-30T03:42:03;97529.59;;;1.46;100.00
2397;BME280;1209;48.410;9.054;2024-01-30T03:44:28;97527.06;;;1.14;100.00
2397;BME280;1209;48.410;9.054;2024-01-30T03:46:53;97532.47;;;1.40;100.00
2397;BME280;1209;48.410;9.054;2024-01-30T03:49:19;97532.06;;;1.47;100.00
2397;BME280;1209;48.410;9.054;2024-01-30T03:51:44;97528.25;;;1.39;100.00
2397;BME280;1209;48.410;9.054;2024-01-30T03:54:09;97523.50;;;1.47;100.00
2397;BME280;1209;48.410;9.054;2024-01-30T03:56:35;97530.78;;;1.54;100.00
2397;BME280;1209;48.410;9.054;2024-01-30T03:59:00;97531.56;;;1.41;100.00
2397;BME280;1209;48.410;9.054;2024-01-30T04:01:27;97525.91;;;1.50;100.00
2397;BME280;1209;48.410;9.054;2024-01-30T04:03:55;97531.09;;;1.64;100.00
2397;BME280;1209;48.410;9.054;2024-01-30T04:06:20;97524.38;;;1.62;100.00
2397;BME280;1209;48.410;9.054;2024-01-30T04:08:45;97529.06;;;1.39;100.00
2397;BME280;1209;48.410;9.054;2024-01-30T04:11:11;97527.25;;;1.71;100.00
2397;BME280;1209;48.410;9.054;2024-01-30T04:13:36;97522.91;;;1.42;100.00
2397;BME280;1209;48.410;9.054;2024-01-30T04:16:01;97526.84;;;1.49;100.00
2397;BME280;1209;48.410;9.054;2024-01-30T04:18:27;97522.97;;;1.26;100.00
2397;BME280;1209;48.410;9.054;2024-01-30T04:20:53;97521.53;;;1.36;100.00
2397;BME280;1209;48.410;9.054;2024-01-30T04:23:18;97522.31;;;1.22;100.00
2397;BME280;1209;48.410;9.054;2024-01-30T04:25:43;97516.53;;;1.03;100.00
2397;BME280;1209;48.410;9.054;2024-01-30T04:28:09;97523.44;;;1.03;100.00
2397;BME280;1209;48.410;9.054;2024-01-30T04:30:37;97521.91;;;1.14;100.00
2397;BME280;1209;48.410;9.054;2024-01-30T04:33:02;97524.13;;;1.20;100.00
2397;BME280;1209;48.410;9.054;2024-01-30T04:35:27;97520.50;;;1.09;100.00
2397;BME280;1209;48.410;9.054;2024-01-30T04:37:53;97524.31;;;1.17;100.00
2397;BME280;1209;48.410;9.054;2024-01-30T04:40:18;97530.97;;;1.06;100.00
2397;BME280;1209;48.410;9.054;2024-01-30T04:42:43;97529.13;;;0.92;100.00
2397;BME280;1209;48.410;9.054;2024-01-30T04:45:09;97530.88;;;1.07;100.00
2397;BME280;1209;48.410;9.054;2024-01-30T04:47:34;97539.16;;;1.12;100.00
2397;BME280;1209;48.410;9.054;2024-01-30T04:49:59;97535.25;;;1.21;100.00
2397;BME280;1209;48.410;9.054;2024-01-30T04:52:25;97533.91;;;1.30;100.00
2397;BME280;1209;48.410;9.054;2024-01-30T04:54:50;97537.72;;;1.38;100.00
2397;BME280;1209;48.410;9.054;2024-01-30T04:57:15;97540.38;;;1.37;100.00
2397;BME280;1209;48.410;9.054;2024-01-30T04:59:40;97532.00;;;1.33;100.00
2397;BME280;1209;48.410;9.054;2024-01-30T05:02:06;97530.41;;;1.31;100.00
2397;BME280;1209;48.410;9.054;2024-01-30T05:04:32;97537.72;;;1.38;100.00
2397;BME280;1209;48.410;9.054;2024-01-30T05:06:57;97540.88;;;1.43;100.00
2397;BME280;1209;48.410;9.054;2024-01-30T05:09:22;97538.44;;;1.56;100.00
2397;BME280;1209;48.410;9.054;2024-01-30T05:11:47;97549.94;;;1.65;100.00
2397;BME280;1209;48.410;9.054;2024-01-30T05:14:13;97537.72;;;1.38;100.00
2397;BME280;1209;48.410;9.054;2024-01-30T05:16:40;97544.31;;;1.58;100.00
2397;BME280;1209;48.410;9.054;2024-01-30T05:19:06;97555.34;;;1.60;100.00
2397;BME280;1209;48.410;9.054;2024-01-30T05:21:31;97545.50;;;1.52;100.00
2397;BME280;1209;48.410;9.054;2024-01-30T05:23:56;97545.69;;;1.49;100.00
2397;BME280;1209;48.410;9.054;2024-01-30T05:26:21;97546.34;;;1.37;100.00
2397;BME280;1209;48.410;9.054;2024-01-30T05:28:48;97535.25;;;1.21;100.00
2397;BME280;1209;48.410;9.054;2024-01-30T05:31:13;97547.47;;;1.17;100.00
2397;BME280;1209;48.410;9.054;2024-01-30T05:33:38;97544.16;;;1.15;100.00
2397;BME280;1209;48.410;9.054;2024-01-30T05:36:04;97543.22;;;1.16;100.00
2397;BME280;1209;48.410;9.054;2024-01-30T05:38:30;97539.25;;;1.11;100.00
2397;BME280;1209;48.410;9.054;2024-01-30T05:40:57;97541.91;;;1.09;100.00
2397;BME280;1209;48.410;9.054;2024-01-30T05:43:23;97537.59;;;0.94;100.00
2397;BME280;1209;48.410;9.054;2024-01-30T05:45:49;97536.63;;;0.97;100.00
2397;BME280;1209;48.410;9.054;2024-01-30T05:48:14;97541.00;;;0.94;100.00
2397;BME280;1209;48.410;9.054;2024-01-30T05:50:39;97537.66;;;0.92;100.00
2397;BME280;1209;48.410;9.054;2024-01-30T05:53:04;97539.09;;;0.98;100.00
2397;BME280;1209;48.410;9.054;2024-01-30T05:55:30;97533.69;;;1.18;100.00
2397;BME280;1209;48.410;9.054;2024-01-30T05:57:55;97546.72;;;1.15;100.00
2397;BME280;1209;48.410;9.054;2024-01-30T06:00:20;97547.25;;;1.36;100.00
2397;BME280;1209;48.410;9.054;2024-01-30T06:02:46;97543.53;;;1.26;100.00
2397;BME280;1209;48.410;9.054;2024-01-30T06:05:11;97545.06;;;1.14;100.00
2397;BME280;1209;48.410;9.054;2024-01-30T06:07:36;97544.53;;;1.23;100.00
2397;BME280;1209;48.410;9.054;2024-01-30T06:10:02;97551.59;;;1.20;100.00
2397;BME280;1209;48.410;9.054;2024-01-30T06:12:28;97561.25;;;1.16;100.00
2397;BME280;1209;48.410;9.054;2024-01-30T06:14:53;97551.47;;;1.07;100.00
2397;BME280;1209;48.410;9.054;2024-01-30T06:17:21;97560.56;;;1.13;100.00
2397;BME280;1209;48.410;9.054;2024-01-30T06:19:47;97567.88;;;1.05;100.00
2397;BME280;1209;48.410;9.054;2024-01-30T06:22:12;97565.75;;;0.97;100.00
2397;BME280;1209;48.410;9.054;2024-01-30T06:24:37;97569.97;;;0.98;100.00
2397;BME280;1209;48.410;9.054;2024-01-30T06:27:03;97562.09;;;1.01;100.00
2397;BME280;1209;48.410;9.054;2024-01-30T06:29:28;97571.47;;;1.02;100.00
2397;BME280;1209;48.410;9.054;2024-01-30T06:31:54;97571.09;;;0.92;100.00
2397;BME280;1209;48.410;9.054;2024-01-30T06:34:19;97569.09;;;0.82;100.00
2397;BME280;1209;48.410;9.054;2024-01-30T06:36:45;97570.94;;;0.80;100.00
2397;BME280;1209;48.410;9.054;2024-01-30T06:39:10;97570.13;;;0.95;100.00
2397;BME280;1209;48.410;9.054;2024-01-30T06:41:35;97575.41;;;0.92;100.00
2397;BME280;1209;48.410;9.054;2024-01-30T06:44:02;97571.19;;;0.91;100.00
2397;BME280;1209;48.410;9.054;2024-01-30T06:46:29;97563.75;;;1.02;100.00
2397;BME280;1209;48.410;9.054;2024-01-30T06:48:54;97561.06;;;0.88;100.00
2397;BME280;1209;48.410;9.054;2024-01-30T06:51:19;97569.97;;;0.98;100.00
2397;BME280;1209;48.410;9.054;2024-01-30T06:53:45;97571.19;;;0.91;100.00
2397;BME280;1209;48.410;9.054;2024-01-30T06:56:10;97576.34;;;1.07;100.00
2397;BME280;1209;48.410;9.054;2024-01-30T06:58:35;97573.59;;;0.94;100.00
2397;BME280;1209;48.410;9.054;2024-01-30T07:01:01;97576.00;;;1.13;100.00
2397;BME280;1209;48.410;9.054;2024-01-30T07:03:27;97577.41;;;1.18;100.00
2397;BME280;1209;48.410;9.054;2024-01-30T07:05:52;97576.25;;;1.08;100.00
2397;BME280;1209;48.410;9.054;2024-01-30T07:08:17;97573.59;;;1.10;100.00
2397;BME280;1209;48.410;9.054;2024-01-30T07:10:46;97573.41;;;1.29;100.00
2397;BME280;1209;48.410;9.054;2024-01-30T07:13:11;97579.38;;;1.29;100.00
2397;BME280;1209;48.410;9.054;2024-01-30T07:15:38;97587.19;;;1.27;100.00
2397;BME280;1209;48.410;9.054;2024-01-30T07:18:04;97590.16;;;1.36;100.00
2397;BME280;1209;48.410;9.054;2024-01-30T07:20:30;97580.38;;;1.26;100.00
2397;BME280;1209;48.410;9.054;2024-01-30T07:22:57;97586.09;;;1.32;100.00
2397;BME280;1209;48.410;9.054;2024-01-30T07:25:22;97583.03;;;1.41;100.00
2397;BME280;1209;48.410;9.054;2024-01-30T07:27:52;97584.84;;;1.39;100.00
2397;BME280;1209;48.410;9.054;2024-01-30T07:30:17;97583.19;;;1.53;100.00
2397;BME280;1209;48.410;9.054;2024-01-30T07:32:43;97583.09;;;1.55;100.00
2397;BME280;1209;48.410;9.054;2024-01-30T07:35:09;97590.81;;;1.55;100.00
2397;BME280;1209;48.410;9.054;2024-01-30T07:37:34;97588.69;;;1.47;100.00
2397;BME280;1209;48.410;9.054;2024-01-30T07:40:01;97586.38;;;1.43;100.00
2397;BME280;1209;48.410;9.054;2024-01-30T07:42:27;97589.44;;;1.49;100.00
2397;BME280;1209;48.410;9.054;2024-01-30T07:44:52;97589.81;;;1.57;100.00
2397;BME280;1209;48.410;9.054;2024-01-30T07:47:17;97586.81;;;1.65;100.00
2397;BME280;1209;48.410;9.054;2024-01-30T07:49:42;97586.19;;;1.76;100.00
2397;BME280;1209;48.410;9.054;2024-01-30T07:52:08;97580.41;;;1.72;100.00
2397;BME280;1209;48.410;9.054;2024-01-30T07:54:33;97586.31;;;1.88;100.00
2397;BME280;1209;48.410;9.054;2024-01-30T07:57:00;97581.59;;;1.97;100.00
2397;BME280;1209;48.410;9.054;2024-01-30T07:59:25;97595.75;;;2.04;100.00
2397;BME280;1209;48.410;9.054;2024-01-30T08:01:50;97586.41;;;2.17;100.00
2397;BME280;1209;48.410;9.054;2024-01-30T08:04:15;97589.44;;;2.24;100.00
2397;BME280;1209;48.410;9.054;2024-01-30T08:06:43;97591.56;;;2.31;100.00
2397;BME280;1209;48.410;9.054;2024-01-30T08:09:08;97588.66;;;2.51;100.00
2397;BME280;1209;48.410;9.054;2024-01-30T08:11:34;97586.06;;;2.51;100.00
2397;BME280;1209;48.410;9.054;2024-01-30T08:13:59;97593.44;;;2.58;100.00
2397;BME280;1209;48.410;9.054;2024-01-30T08:16:24;97594.63;;;2.66;100.00
2397;BME280;1209;48.410;9.054;2024-01-30T08:18:49;97587.53;;;2.70;100.00
2397;BME280;1209;48.410;9.054;2024-01-30T08:21:15;97582.28;;;2.86;100.00
2397;BME280;1209;48.410;9.054;2024-01-30T08:23:40;97588.16;;;3.02;100.00
2397;BME280;1209;48.410;9.054;2024-01-30T08:26:05;97586.75;;;3.10;100.00
2397;BME280;1209;48.410;9.054;2024-01-30T08:28:31;97582.59;;;3.08;100.00
2397;BME280;1209;48.410;9.054;2024-01-30T08:30:56;97588.44;;;3.24;100.00
2397;BME280;1209;48.410;9.054;2024-01-30T08:33:21;97583.91;;;3.28;100.00
2397;BME280;1209;48.410;9.054;2024-01-30T08:35:46;97586.31;;;3.31;100.00
2397;BME280;1209;48.410;9.054;2024-01-30T08:38:12;97582.84;;;3.32;100.00
2397;BME280;1209;48.410;9.054;2024-01-30T08:40:37;97582.00;;;3.31;100.00
2397;BME280;1209;48.410;9.054;2024-01-30T08:43:03;97582.47;;;3.51;100.00
2397;BME280;1209;48.410;9.054;2024-01-30T08:45:29;97585.91;;;3.51;100.00
2397;BME280;1209;48.410;9.054;2024-01-30T08:47:55;97579.09;;;3.63;100.00
2397;BME280;1209;48.410;9.054;2024-01-30T08:50:21;97588.41;;;3.65;100.00
2397;BME280;1209;48.410;9.054;2024-01-30T08:52:46;97585.28;;;3.60;100.00
2397;BME280;1209;48.410;9.054;2024-01-30T08:55:11;97582.13;;;3.69;100.00
2397;BME280;1209;48.410;9.054;2024-01-30T08:57:37;97583.03;;;3.68;100.00
2397;BME280;1209;48.410;9.054;2024-01-30T09:00:02;97586.53;;;3.94;100.00
2397;BME280;1209;48.410;9.054;2024-01-30T09:02:31;97585.81;;;4.05;100.00
2397;BME280;1209;48.410;9.054;2024-01-30T09:04:57;97584.16;;;4.17;100.00
2397;BME280;1209;48.410;9.054;2024-01-30T09:07:22;97591.25;;;4.27;100.00
2397;BME280;1209;48.410;9.054;2024-01-30T09:09:47;97591.13;;;4.41;100.00
2397;BME280;1209;48.410;9.054;2024-01-30T09:12:14;97589.66;;;4.63;100.00
2397;BME280;1209;48.410;9.054;2024-01-30T09:14:39;97597.00;;;4.82;100.00
2397;BME280;1209;48.410;9.054;2024-01-30T09:17:06;97590.56;;;5.00;100.00
2397;BME280;1209;48.410;9.054;2024-01-30T09:19:31;97594.84;;;5.25;100.00
2397;BME280;1209;48.410;9.054;2024-01-30T09:21:56;97596.94;;;5.44;100.00
2397;BME280;1209;48.410;9.054;2024-01-30T09:24:22;97594.56;;;5.64;100.00
2397;BME280;1209;48.410;9.054;2024-01-30T09:26:47;97595.63;;;5.86;100.00
2397;BME280;1209;48.410;9.054;2024-01-30T09:29:13;97595.72;;;6.08;100.00
2397;BME280;1209;48.410;9.054;2024-01-30T09:31:38;97591.91;;;6.25;100.00
2397;BME280;1209;48.410;9.054;2024-01-30T09:34:03;97599.13;;;6.44;100.00
2397;BME280;1209;48.410;9.054;2024-01-30T09:36:28;97603.75;;;6.62;100.00
2397;BME280;1209;48.410;9.054;2024-01-30T09:38:54;97604.56;;;6.97;100.00
2397;BME280;1209;48.410;9.054;2024-01-30T09:41:19;97606.94;;;7.22;100.00
2397;BME280;1209;48.410;9.054;2024-01-30T09:43:47;97605.63;;;7.28;100.00
2397;BME280;1209;48.410;9.054;2024-01-30T09:46:17;97599.56;;;7.38;100.00
2397;BME280;1209;48.410;9.054;2024-01-30T09:48:43;97607.50;;;7.37;100.00
2397;BME280;1209;48.410;9.054;2024-01-30T09:51:11;97600.94;;;7.53;100.00
2397;BME280;1209;48.410;9.054;2024-01-30T09:53:37;97607.78;;;7.54;100.00
2397;BME280;1209;48.410;9.054;2024-01-30T09:56:02;97594.91;;;7.64;100.00
2397;BME280;1209;48.410;9.054;2024-01-30T09:58:28;97600.19;;;7.74;100.00
2397;BME280;1209;48.410;9.054;2024-01-30T10:00:53;97599.56;;;7.81;100.00
2397;BME280;1209;48.410;9.054;2024-01-30T10:03:19;97601.28;;;7.92;100.00
2397;BME280;1209;48.410;9.054;2024-01-30T10:05:52;97607.38;;;8.13;100.00
2397;BME280;1209;48.410;9.054;2024-01-30T10:08:18;97599.50;;;8.25;99.36
2397;BME280;1209;48.410;9.054;2024-01-30T10:10:49;97600.41;;;8.35;99.92
2397;BME280;1209;48.410;9.054;2024-01-30T10:13:18;97611.09;;;8.52;95.33
2397;BME280;1209;48.410;9.054;2024-01-30T10:15:44;97601.84;;;8.48;99.49
2397;BME280;1209;48.410;9.054;2024-01-30T10:18:10;97605.16;;;8.71;96.11
2397;BME280;1209;48.410;9.054;2024-01-30T10:20:36;97601.16;;;8.67;97.85
2397;BME280;1209;48.410;9.054;2024-01-30T10:23:02;97606.38;;;8.67;99.53
2397;BME280;1209;48.410;9.054;2024-01-30T10:25:27;97610.78;;;8.76;100.00
2397;BME280;1209;48.410;9.054;2024-01-30T10:27:53;97605.22;;;8.91;100.00
2397;BME280;1209;48.410;9.054;2024-01-30T10:30:22;97600.84;;;8.91;100.00
2397;BME280;1209;48.410;9.054;2024-01-30T10:32:48;97602.97;;;8.76;100.00
2397;BME280;1209;48.410;9.054;2024-01-30T10:35:13;97602.84;;;8.78;100.00
2397;BME280;1209;48.410;9.054;2024-01-30T10:37:39;97601.66;;;8.92;100.00
2397;BME280;1209;48.410;9.054;2024-01-30T10:40:04;97601.66;;;8.92;100.00
2397;BME280;1209;48.410;9.054;2024-01-30T10:42:31;97597.78;;;9.07;100.00
2397;BME280;1209;48.410;9.054;2024-01-30T10:45:05;97588.19;;;9.17;99.41
2397;BME280;1209;48.410;9.054;2024-01-30T10:47:34;97598.66;;;9.36;96.67
2397;BME280;1209;48.410;9.054;2024-01-30T10:50:02;97585.63;;;9.36;98.37
2397;BME280;1209;48.410;9.054;2024-01-30T10:52:28;97587.19;;;9.49;98.21
2397;BME280;1209;48.410;9.054;2024-01-30T10:54:55;97590.63;;;9.49;100.00
2397;BME280;1209;48.410;9.054;2024-01-30T10:57:23;97587.75;;;9.52;100.00
2397;BME280;1209;48.410;9.054;2024-01-30T10:59:49;97591.00;;;9.44;100.00
2397;BME280;1209;48.410;9.054;2024-01-30T11:02:18;97593.50;;;9.46;100.00
2397;BME280;1209;48.410;9.054;2024-01-30T11:04:45;97586.72;;;9.43;100.00
2397;BME280;1209;48.410;9.054;2024-01-30T11:07:18;97589.13;;;9.56;100.00
2397;BME280;1209;48.410;9.054;2024-01-30T11:09:50;97579.09;;;9.61;100.00
2397;BME280;1209;48.410;9.054;2024-01-30T11:12:16;97576.91;;;9.76;96.91
2397;BME280;1209;48.410;9.054;2024-01-30T11:14:41;97578.13;;;9.72;93.28
2397;BME280;1209;48.410;9.054;2024-01-30T11:17:06;97578.97;;;9.72;95.57
2397;BME280;1209;48.410;9.054;2024-01-30T11:19:32;97581.84;;;9.79;95.01
2397;BME280;1209;48.410;9.054;2024-01-30T11:21:59;97577.88;;;9.85;100.00
2397;BME280;1209;48.410;9.054;2024-01-30T11:24:25;97579.22;;;9.89;98.31
2397;BME280;1209;48.410;9.054;2024-01-30T11:26:56;97577.31;;;9.81;96.21
2397;BME280;1209;48.410;9.054;2024-01-30T11:29:29;97575.94;;;9.77;96.46
2397;BME280;1209;48.410;9.054;2024-01-30T11:31:56;97577.03;;;9.74;98.40
2397;BME280;1209;48.410;9.054;2024-01-30T11:34:21;97581.56;;;9.82;97.52
2397;BME280;1209;48.410;9.054;2024-01-30T11:36:59;97581.56;;;9.92;94.97
2397;BME280;1209;48.410;9.054;2024-01-30T11:39:25;97584.06;;;10.03;93.08
2397;BME280;1209;48.410;9.054;2024-01-30T11:41:52;97579.78;;;10.12;92.91
2397;BME280;1209;48.410;9.054;2024-01-30T11:44:20;97576.22;;;10.32;95.62
2397;BME280;1209;48.410;9.054;2024-01-30T11:46:49;97572.88;;;10.39;95.07
2397;BME280;1209;48.410;9.054;2024-01-30T11:49:15;97583.06;;;10.52;95.92
2397;BME280;1209;48.410;9.054;2024-01-30T11:51:41;97582.91;;;10.54;94.88
2397;BME280;1209;48.410;9.054;2024-01-30T11:54:07;97577.66;;;10.63;92.20
2397;BME280;1209;48.410;9.054;2024-01-30T11:56:32;97578.47;;;10.64;91.69
2397;BME280;1209;48.410;9.054;2024-01-30T11:58:58;97578.59;;;10.72;89.23
2397;BME280;1209;48.410;9.054;2024-01-30T12:01:25;97579.66;;;10.79;88.89
2397;BME280;1209;48.410;9.054;2024-01-30T12:03:51;97574.16;;;10.82;86.96
2397;BME280;1209;48.410;9.054;2024-01-30T12:06:16;97563.00;;;10.90;85.45
2397;BME280;1209;48.410;9.054;2024-01-30T12:08:42;97563.53;;;10.93;87.42
2397;BME280;1209;48.410;9.054;2024-01-30T12:11:07;97558.16;;;10.95;84.67
2397;BME280;1209;48.410;9.054;2024-01-30T12:13:32;97557.44;;;11.02;81.40
2397;BME280;1209;48.410;9.054;2024-01-30T12:15:59;97556.75;;;11.00;83.55
2397;BME280;1209;48.410;9.054;2024-01-30T12:18:24;97546.69;;;11.06;82.01
2397;BME280;1209;48.410;9.054;2024-01-30T12:20:59;97545.38;;;11.19;88.45
2397;BME280;1209;48.410;9.054;2024-01-30T12:23:28;97538.72;;;11.25;78.07
2397;BME280;1209;48.410;9.054;2024-01-30T12:25:53;97538.09;;;11.41;73.73
2397;BME280;1209;48.410;9.054;2024-01-30T12:28:20;97533.09;;;11.65;70.24
2397;BME280;1209;48.410;9.054;2024-01-30T12:30:45;97540.78;;;11.66;75.36
2397;BME280;1209;48.410;9.054;2024-01-30T12:33:16;97538.53;;;11.72;68.81
2397;BME280;1209;48.410;9.054;2024-01-30T12:35:45;97533.81;;;11.75;73.10
2397;BME280;1209;48.410;9.054;2024-01-30T12:38:11;97529.25;;;11.77;75.01
2397;BME280;1209;48.410;9.054;2024-01-30T12:40:36;97535.19;;;11.79;76.88
2397;BME280;1209;48.410;9.054;2024-01-30T12:43:02;97536.19;;;11.96;70.71
2397;BME280;1209;48.410;9.054;2024-01-30T12:45:28;97534.81;;;12.10;68.62
2397;BME280;1209;48.410;9.054;2024-01-30T12:47:53;97539.84;;;12.03;72.67
2397;BME280;1209;48.410;9.054;2024-01-30T12:50:18;97532.34;;;12.08;70.65
2397;BME280;1209;48.410;9.054;2024-01-30T12:52:44;97538.91;;;12.12;70.31
2397;BME280;1209;48.410;9.054;2024-01-30T12:55:10;97532.28;;;12.00;72.89
2397;BME280;1209;48.410;9.054;2024-01-30T12:57:35;97537.44;;;12.10;69.05
2397;BME280;1209;48.410;9.054;2024-01-30T13:00:00;97544.97;;;12.13;69.83
2397;BME280;1209;48.410;9.054;2024-01-30T13:02:26;97533.94;;;12.01;72.06
2397;BME280;1209;48.410;9.054;2024-01-30T13:04:55;97534.81;;;12.10;69.95
2397;BME280;1209;48.410;9.054;2024-01-30T13:07:20;97531.22;;;12.11;70.46
2397;BME280;1209;48.410;9.054;2024-01-30T13:09:45;97531.94;;;12.21;68.23
2397;BME280;1209;48.410;9.054;2024-01-30T13:12:11;97530.97;;;12.22;68.70
2397;BME280;1209;48.410;9.054;2024-01-30T13:14:36;97530.13;;;12.21;66.86